createdAt,value
2018-04-11T00:02:27.747Z,8.13
2018-04-11T00:04:56.368Z,8.15
2018-04-11T00:07:25.012Z,8.18
2018-04-11T00:12:48.804Z,7.97
2018-04-11T00:15:21.789Z,7.97
2018-04-11T00:17:52.257Z,7.97
2018-04-11T00:20:22.695Z,7.91
2018-04-11T00:22:53.164Z,7.81
2018-04-11T00:25:24.472Z,7.80
2018-04-11T00:27:54.949Z,7.86
2018-04-11T00:30:25.262Z,7.88
2018-04-11T00:32:56.197Z,7.81
2018-04-11T00:35:27.955Z,7.88
2018-04-11T00:38:08.894Z,7.81
2018-04-11T00:40:39.517Z,7.79
2018-04-11T00:43:13.937Z,7.75
2018-04-11T00:45:44.454Z,7.77
2018-04-11T00:48:14.986Z,7.77
2018-04-11T00:50:46.014Z,7.68
2018-04-11T00:53:24.737Z,7.71
2018-04-11T00:55:55.077Z,7.70
2018-04-11T00:58:27.172Z,7.67
2018-04-11T01:00:57.895Z,7.69
2018-04-11T01:03:28.343Z,7.71
2018-04-11T01:05:58.774Z,7.77
2018-04-11T01:08:29.714Z,7.71
2018-04-11T01:11:00.234Z,7.65
2018-04-11T01:13:32.334Z,7.70
2018-04-11T01:16:02.841Z,7.62
2018-04-11T01:18:33.337Z,7.63
2018-04-11T01:21:04.423Z,7.58
2018-04-11T01:23:37.475Z,7.55
2018-04-11T01:26:08.394Z,7.56
2018-04-11T01:28:39.098Z,7.54
2018-04-11T01:31:10.598Z,7.56
2018-04-11T01:33:41.830Z,7.70
2018-04-11T01:36:12.262Z,7.61
2018-04-11T01:38:42.805Z,7.65
2018-04-11T01:41:13.909Z,7.55
2018-04-11T01:43:51.593Z,7.53
2018-04-11T01:46:22.413Z,7.51
2018-04-11T01:48:52.929Z,7.45
2018-04-11T01:51:24.773Z,7.51
2018-04-11T01:53:55.378Z,7.58
2018-04-11T01:56:25.897Z,7.45
2018-04-11T01:58:56.437Z,7.40
2018-04-11T02:01:31.227Z,7.40
2018-04-11T02:04:01.825Z,7.38
2018-04-11T02:06:32.296Z,7.31
2018-04-11T02:09:02.876Z,7.29
2018-04-11T02:11:34.247Z,7.22
2018-04-11T02:14:05.380Z,7.22
2018-04-11T02:16:35.926Z,7.23
2018-04-11T02:19:07.390Z,7.15
2018-04-11T02:21:40.399Z,7.12
2018-04-11T02:24:11.358Z,7.00
2018-04-11T02:26:42.186Z,7.02
2018-04-11T02:29:12.674Z,6.91
2018-04-11T02:31:43.022Z,6.97
2018-04-11T02:34:13.883Z,6.87
2018-04-11T02:36:44.551Z,6.87
2018-04-11T02:39:15.023Z,6.87
2018-04-11T02:41:45.422Z,6.86
2018-04-11T02:44:16.584Z,6.84
2018-04-11T02:46:47.134Z,6.82
2018-04-11T02:49:17.727Z,6.71
2018-04-11T02:51:49.601Z,6.67
2018-04-11T02:54:35.603Z,6.63
2018-04-11T02:57:05.963Z,6.51
2018-04-11T02:59:52.409Z,6.48
2018-04-11T03:02:35.201Z,6.49
2018-04-11T03:06:02.562Z,6.49
2018-04-11T03:08:45.091Z,6.43
2018-04-11T03:15:16.027Z,6.42
2018-04-11T03:17:46.503Z,6.36
2018-04-11T03:20:18.371Z,6.33
2018-04-11T03:22:48.798Z,6.45
2018-04-11T03:25:27.741Z,6.47
2018-04-11T03:27:58.958Z,6.38
2018-04-11T03:30:30.157Z,6.45
2018-04-11T03:33:03.013Z,6.35
2018-04-11T03:35:34.301Z,6.45
2018-04-11T03:38:05.153Z,6.43
2018-04-11T03:40:35.553Z,6.33
2018-04-11T03:43:05.966Z,6.38
2018-04-11T03:45:36.691Z,6.22
2018-04-11T03:48:07.914Z,6.11
2018-04-11T03:50:38.331Z,6.20
2018-04-11T03:53:09.018Z,6.13
2018-04-11T03:55:39.789Z,6.13
2018-04-11T03:58:11.413Z,6.23
2018-04-11T04:00:42.098Z,6.14
2018-04-11T04:03:12.912Z,6.05
2018-04-11T04:05:43.552Z,6.10
2018-04-11T04:08:14.261Z,6.00
2018-04-11T04:10:46.580Z,5.88
2018-04-11T04:13:17.141Z,6.00
2018-04-11T04:18:00.422Z,5.93
2018-04-11T04:20:32.105Z,5.79
2018-04-11T04:23:02.563Z,5.88
2018-04-11T04:25:34.749Z,5.83
2018-04-11T04:28:05.127Z,5.82
2018-04-11T04:30:35.568Z,5.82
2018-04-11T04:33:06.035Z,5.83
2018-04-11T04:35:36.632Z,5.84
2018-04-11T04:38:07.131Z,5.82
2018-04-11T04:40:38.871Z,5.81
2018-04-11T04:43:09.715Z,5.83
2018-04-11T04:45:40.243Z,5.83
2018-04-11T04:48:11.188Z,5.81
2018-04-11T04:50:41.599Z,5.69
2018-04-11T04:53:11.991Z,5.85
2018-04-11T04:55:42.858Z,5.75
2018-04-11T04:58:13.251Z,5.68
2018-04-11T05:00:48.595Z,5.65
2018-04-11T05:03:19.235Z,5.69
2018-04-11T05:05:50.107Z,5.63
2018-04-11T05:08:20.643Z,5.60
2018-04-11T05:10:51.432Z,5.52
2018-04-11T05:13:21.931Z,5.55
2018-04-11T05:15:54.066Z,5.57
2018-04-11T05:18:24.990Z,5.71
2018-04-11T05:20:55.395Z,5.62
2018-04-11T05:23:25.994Z,5.71
2018-04-11T05:25:56.966Z,5.79
2018-04-11T05:28:27.599Z,5.83
2018-04-11T05:33:27.837Z,5.82
2018-04-11T05:35:57.011Z,6.01
2018-04-11T05:38:26.327Z,5.97
2018-04-11T05:40:55.611Z,5.87
2018-04-11T05:43:24.210Z,5.99
2018-04-11T05:45:52.820Z,6.00
2018-04-11T05:48:21.594Z,6.20
2018-04-11T05:50:51.476Z,6.18
2018-04-11T05:53:21.012Z,6.16
2018-04-11T05:55:49.606Z,6.20
2018-04-11T05:58:18.253Z,6.21
2018-04-11T06:00:47.188Z,6.27
2018-04-11T06:03:15.852Z,6.34
2018-04-11T06:05:44.589Z,6.41
2018-04-11T06:08:13.320Z,6.53
2018-04-11T06:10:42.213Z,6.82
2018-04-11T06:13:10.854Z,6.88
2018-04-11T06:18:21.262Z,6.92
2018-04-11T06:20:50.013Z,7.04
2018-04-11T06:23:19.298Z,7.10
2018-04-11T06:25:48.832Z,7.25
2018-04-11T06:28:17.869Z,7.43
2018-04-11T06:30:46.560Z,7.60
2018-04-11T06:33:15.339Z,7.58
2018-04-11T06:35:45.095Z,7.78
2018-04-11T06:38:13.819Z,7.87
2018-04-11T06:40:42.428Z,8.04
2018-04-11T06:43:11.546Z,8.15
2018-04-11T06:45:40.232Z,8.21
2018-04-11T06:48:09.383Z,8.43
2018-04-11T06:50:38.038Z,8.65
2018-04-11T06:53:08.075Z,8.86
2018-04-11T06:55:36.735Z,9.05
2018-04-11T06:58:05.519Z,9.17
2018-04-11T07:00:34.307Z,9.22
2018-04-11T07:03:03.252Z,9.39
2018-04-11T07:05:31.840Z,9.58
2018-04-11T07:08:00.532Z,9.57
2018-04-11T07:10:29.254Z,9.54
2018-04-11T07:12:59.295Z,9.71
2018-04-11T07:15:28.221Z,9.88
2018-04-11T07:17:56.915Z,10.13
2018-04-11T07:20:26.226Z,10.27
2018-04-11T07:22:54.878Z,10.51
2018-04-11T07:25:24.214Z,10.60
2018-04-11T07:27:53.189Z,10.77
2018-04-11T07:30:21.808Z,10.79
2018-04-11T07:32:51.327Z,11.00
2018-04-11T07:35:19.918Z,11.27
2018-04-11T07:37:49.886Z,11.40
2018-04-11T07:40:18.533Z,11.68
2018-04-11T07:42:47.276Z,11.87
2018-04-11T07:45:15.922Z,12.04
2018-04-11T07:47:45.859Z,12.39
2018-04-11T07:50:14.593Z,12.81
2018-04-11T07:52:43.320Z,13.30
2018-04-11T07:55:12.074Z,14.18
2018-04-11T07:57:40.958Z,14.84
2018-04-11T08:00:09.621Z,15.67
2018-04-11T08:02:38.310Z,15.30
2018-04-11T08:05:07.060Z,16.25
2018-04-11T08:07:35.935Z,16.95
2018-04-11T08:10:04.581Z,17.18
2018-04-11T08:12:33.197Z,17.59
2018-04-11T08:15:01.831Z,17.80
2018-04-11T08:17:30.515Z,19.38
2018-04-11T08:20:01.789Z,19.22
2018-04-11T08:22:30.646Z,18.91
2018-04-11T08:24:59.285Z,18.11
2018-04-11T08:27:27.880Z,18.97
2018-04-11T08:29:56.680Z,19.98
2018-04-11T08:32:25.824Z,19.58
2018-04-11T08:34:54.410Z,19.17
2018-04-11T08:37:22.964Z,19.62
2018-04-11T08:39:51.521Z,20.27
2018-04-11T08:42:20.392Z,20.34
2018-04-11T08:44:49.017Z,21.56
2018-04-11T08:47:17.644Z,21.65
2018-04-11T08:49:46.204Z,20.67
2018-04-11T08:52:15.108Z,22.61
2018-04-11T08:54:43.683Z,22.80
2018-04-11T08:57:12.292Z,22.67
2018-04-11T08:59:40.956Z,22.88
2018-04-11T09:02:10.579Z,22.87
2018-04-11T09:04:39.172Z,23.09
2018-04-11T09:07:08.049Z,22.15
2018-04-11T09:09:36.782Z,22.44
2018-04-11T09:12:05.793Z,22.81
2018-04-11T09:14:34.477Z,23.58
2018-04-11T09:17:03.089Z,21.23
2018-04-11T09:19:31.668Z,23.60
2018-04-11T09:22:00.569Z,23.70
2018-04-11T09:24:29.128Z,21.93
2018-04-11T09:26:57.800Z,22.88
2018-04-11T09:29:27.759Z,23.97
2018-04-11T09:31:56.768Z,23.83
2018-04-11T09:34:25.415Z,23.05
2018-04-11T09:36:53.972Z,23.07
2018-04-11T09:39:22.579Z,23.58
2018-04-11T09:41:51.577Z,24.56
2018-04-11T09:44:20.240Z,23.64
2018-04-11T09:46:50.156Z,24.05
2018-04-11T09:49:18.725Z,24.00
2018-04-11T09:51:47.307Z,24.84
2018-04-11T09:54:15.971Z,24.55
2018-04-11T09:56:45.048Z,23.71
2018-04-11T09:59:21.388Z,23.64
2018-04-11T10:01:50.624Z,23.29
2018-04-11T10:04:19.516Z,23.56
2018-04-11T10:06:48.309Z,24.19
2018-04-11T10:09:17.292Z,24.94
2018-04-11T10:11:46.177Z,24.75
2018-04-11T10:14:15.243Z,25.08
2018-04-11T10:16:44.949Z,24.56
2018-04-11T10:19:13.600Z,24.51
2018-04-11T10:21:51.152Z,23.69
2018-04-11T10:25:31.942Z,22.39
2018-04-11T10:28:05.583Z,20.68
2018-04-11T10:30:36.591Z,21.49
2018-04-11T10:38:09.786Z,19.88
2018-04-11T10:40:45.073Z,19.98
2018-04-11T10:43:17.589Z,19.93
2018-04-11T10:45:53.109Z,19.90
2018-04-11T10:48:25.728Z,19.73
2018-04-11T10:50:57.793Z,20.46
2018-04-11T10:53:28.237Z,19.83
2018-04-11T10:55:57.697Z,20.54
2018-04-11T10:58:26.526Z,21.04
2018-04-11T11:01:10.252Z,20.02
2018-04-11T11:03:56.291Z,19.55
2018-04-11T11:06:25.282Z,19.06
2018-04-11T11:08:53.912Z,18.80
2018-04-11T11:11:23.720Z,18.78
2018-04-11T11:13:53.438Z,19.07
2018-04-11T11:16:29.504Z,18.94
2018-04-11T11:19:03.396Z,18.17
2018-04-11T11:21:32.103Z,17.99
2018-04-11T11:24:01.073Z,18.16
2018-04-11T11:26:29.794Z,17.32
2018-04-11T11:28:59.146Z,17.56
2018-04-11T11:31:31.346Z,17.98
2018-04-11T11:34:01.582Z,18.24
2018-04-11T11:36:35.866Z,17.89
2018-04-11T11:39:05.781Z,18.13
2018-04-11T11:41:35.939Z,18.17
2018-04-11T11:44:04.690Z,18.28
2018-04-11T11:46:33.371Z,18.39
2018-04-11T11:49:01.982Z,18.57
2018-04-11T11:51:31.014Z,18.78
2018-04-11T11:53:59.827Z,18.43
2018-04-11T11:56:28.448Z,17.77
2018-04-11T11:58:57.033Z,17.93
2018-04-11T12:01:26.055Z,17.96
2018-04-11T12:03:54.644Z,18.31
2018-04-11T12:06:23.360Z,18.48
2018-04-11T12:08:51.964Z,18.47
2018-04-11T12:11:20.849Z,18.47
2018-04-11T12:13:49.782Z,18.78
2018-04-11T12:16:22.855Z,18.67
2018-04-11T12:18:52.191Z,18.52
2018-04-11T12:21:20.816Z,18.52
2018-04-11T12:23:49.781Z,18.85
2018-04-11T12:26:19.947Z,18.74
2018-04-11T12:28:50.788Z,18.69
2018-04-11T12:31:19.571Z,18.71
2018-04-11T12:33:49.257Z,18.74
2018-04-11T12:36:18.310Z,18.97
2018-04-11T12:38:47.120Z,18.80
2018-04-11T12:41:16.007Z,18.90
2018-04-11T12:43:44.714Z,19.20
2018-04-11T12:46:13.696Z,19.17
2018-04-11T12:48:43.360Z,19.28
2018-04-11T12:51:13.250Z,19.27
2018-04-11T12:53:43.677Z,18.68
2018-04-11T12:56:12.702Z,18.26
2018-04-11T12:58:41.476Z,18.86
2018-04-11T13:01:11.047Z,19.08
2018-04-11T13:03:39.901Z,19.11
2018-04-11T13:06:09.562Z,19.44
2018-04-11T13:08:38.165Z,19.64
2018-04-11T13:11:06.863Z,19.48
2018-04-11T13:13:35.709Z,19.96
2018-04-11T13:16:04.601Z,20.37
2018-04-11T13:18:33.239Z,20.36
2018-04-11T13:21:02.452Z,20.39
2018-04-11T13:23:35.582Z,20.26
2018-04-11T13:26:04.225Z,20.90
2018-04-11T13:28:34.647Z,21.69
2018-04-11T13:31:03.373Z,22.67
2018-04-11T13:33:32.535Z,22.50
2018-04-11T13:36:01.460Z,22.15
2018-04-11T13:38:30.080Z,23.36
2018-04-11T13:40:58.788Z,23.95
2018-04-11T13:43:27.788Z,24.95
2018-04-11T13:45:56.426Z,24.81
2018-04-11T13:48:25.060Z,25.56
2018-04-11T13:50:53.688Z,24.20
2018-04-11T13:53:22.654Z,24.57
2018-04-11T13:55:51.205Z,24.54
2018-04-11T13:58:19.885Z,25.72
2018-04-11T14:00:48.598Z,24.77
2018-04-11T14:03:17.953Z,26.21
2018-04-11T14:05:46.586Z,24.40
2018-04-11T14:08:15.569Z,23.48
2018-04-11T14:10:44.604Z,23.53
2018-04-11T14:13:13.484Z,24.30
2018-04-11T14:15:42.171Z,23.54
2018-04-11T14:18:11.450Z,22.60
2018-04-11T14:20:40.065Z,21.83
2018-04-11T14:23:08.959Z,21.20
2018-04-11T14:25:37.647Z,21.28
2018-04-11T14:28:06.628Z,21.57
2018-04-11T14:30:35.359Z,23.20
2018-04-11T14:33:03.986Z,24.45
2018-04-11T14:35:32.713Z,26.60
2018-04-11T14:38:01.642Z,26.94
2018-04-11T14:40:30.802Z,26.00
2018-04-11T14:42:59.450Z,26.62
2018-04-11T14:45:28.055Z,26.69
2018-04-11T14:47:58.016Z,27.40
2018-04-11T14:50:26.626Z,25.83
2018-04-11T14:52:55.314Z,24.71
2018-04-11T14:55:23.954Z,24.22
2018-04-11T14:57:52.844Z,22.82
2018-04-11T15:00:21.471Z,22.68
2018-04-11T15:02:50.240Z,21.87
2018-04-11T15:05:18.964Z,21.19
2018-04-11T15:07:47.600Z,20.57
2018-04-11T15:10:16.271Z,20.22
2018-04-11T15:12:45.172Z,20.14
2018-04-11T15:15:14.086Z,19.97
2018-04-11T15:17:42.931Z,20.11
2018-04-11T15:20:11.767Z,19.74
2018-04-11T15:22:46.148Z,19.50
2018-04-11T15:25:14.741Z,19.23
2018-04-11T15:27:43.965Z,19.36
2018-04-11T15:30:13.006Z,19.22
2018-04-11T15:32:41.989Z,19.00
2018-04-11T15:35:11.184Z,18.97
2018-04-11T15:37:39.791Z,18.91
2018-04-11T15:40:08.505Z,18.81
2018-04-11T15:42:37.321Z,18.79
2018-04-11T15:45:06.099Z,18.71
2018-04-11T15:47:35.096Z,18.81
2018-04-11T15:50:04.228Z,19.66
2018-04-11T15:52:33.125Z,21.55
2018-04-11T15:55:01.789Z,22.67
2018-04-11T15:57:30.544Z,23.44
2018-04-11T15:59:59.207Z,23.05
2018-04-11T16:02:28.186Z,22.75
2018-04-11T16:04:58.148Z,23.41
2018-04-11T16:07:26.802Z,22.88
2018-04-11T16:09:55.889Z,22.59
2018-04-11T16:12:24.638Z,21.90
2018-04-11T16:14:53.371Z,21.11
2018-04-11T16:17:22.143Z,20.90
2018-04-11T16:19:51.259Z,19.71
2018-04-11T16:22:19.920Z,19.69
2018-04-11T16:24:48.750Z,19.52
2018-04-11T16:27:20.266Z,19.40
2018-04-11T16:29:49.953Z,19.20
2018-04-11T16:32:18.606Z,19.03
2018-04-11T16:34:47.236Z,18.96
2018-04-11T16:37:15.794Z,18.75
2018-04-11T16:39:48.402Z,18.74
2018-04-11T16:42:19.004Z,18.83
2018-04-11T16:44:47.824Z,18.65
2018-04-11T16:47:16.837Z,18.57
2018-04-11T16:49:49.190Z,18.44
2018-04-11T16:52:18.962Z,18.29
2018-04-11T16:54:47.602Z,18.28
2018-04-11T16:57:17.639Z,18.30
2018-04-11T16:59:46.249Z,18.29
2018-04-11T17:02:16.252Z,18.27
2018-04-11T17:04:45.303Z,18.30
2018-04-11T17:07:16.979Z,18.35
2018-04-11T17:09:46.097Z,18.24
2018-04-11T17:12:15.964Z,18.31
2018-04-11T17:14:45.789Z,18.18
2018-04-11T17:17:15.060Z,18.01
2018-04-11T17:19:44.012Z,17.97
2018-04-11T17:22:24.040Z,17.83
2018-04-11T17:27:04.793Z,17.82
2018-04-11T17:29:44.681Z,17.68
2018-04-11T17:32:13.943Z,17.57
2018-04-11T17:34:42.938Z,17.49
2018-04-11T17:37:11.740Z,17.52
2018-04-11T17:39:41.123Z,17.53
2018-04-11T17:42:10.417Z,17.48
2018-04-11T17:44:39.702Z,17.42
2018-04-11T17:47:08.710Z,17.30
2018-04-11T17:49:39.524Z,17.29
2018-04-11T17:52:08.452Z,17.29
2018-04-11T17:54:38.290Z,17.20
2018-04-11T17:57:07.726Z,17.26
2018-04-11T17:59:40.309Z,17.11
2018-04-11T18:02:11.257Z,17.09
2018-04-11T18:04:40.753Z,17.11
2018-04-11T18:07:14.505Z,17.07
2018-04-11T18:09:45.813Z,17.01
2018-04-11T18:12:27.082Z,16.86
2018-04-11T18:14:55.758Z,16.79
2018-04-11T18:17:33.588Z,16.60
2018-04-11T18:20:11.953Z,16.58
2018-04-11T18:22:42.846Z,16.46
2018-04-11T18:25:12.681Z,16.45
2018-04-11T18:27:46.183Z,16.40
2018-04-11T18:30:15.325Z,16.27
2018-04-11T18:32:44.644Z,16.17
2018-04-11T18:35:26.729Z,16.21
2018-04-11T18:37:58.751Z,15.96
2018-04-11T18:40:29.906Z,15.86
2018-04-11T18:45:39.969Z,15.54
2018-04-11T18:48:10.487Z,15.36
2018-04-11T18:53:48.600Z,15.18
2018-04-11T18:56:17.561Z,15.19
2018-04-11T18:58:56.190Z,15.11
2018-04-11T19:01:24.921Z,15.00
2018-04-11T19:03:53.813Z,14.88
2018-04-11T19:06:22.842Z,14.80
2018-04-11T19:08:53.500Z,14.85
2018-04-11T19:11:22.308Z,14.84
2018-04-11T19:13:51.899Z,14.79
2018-04-11T19:16:21.099Z,14.91
2018-04-11T19:18:50.395Z,14.72
2018-04-11T19:21:20.372Z,14.53
2018-04-11T19:23:49.915Z,14.39
2018-04-11T19:26:18.658Z,14.28
2018-04-11T19:28:52.786Z,14.30
2018-04-11T19:31:21.904Z,14.11
2018-04-11T19:33:51.816Z,14.08
2018-04-11T19:36:21.069Z,13.93
2018-04-11T19:38:50.505Z,13.88
2018-04-11T19:41:20.743Z,13.80
2018-04-11T19:43:49.601Z,13.76
2018-04-11T19:46:18.233Z,13.70
2018-04-11T19:48:51.056Z,13.57
2018-04-11T19:51:29.849Z,13.51
2018-04-11T19:54:01.773Z,13.45
2018-04-11T19:56:31.816Z,13.34
2018-04-11T19:59:00.978Z,13.37
2018-04-11T20:01:32.365Z,13.28
2018-04-11T20:04:06.712Z,13.17
2018-04-11T20:06:35.979Z,13.09
2018-04-11T20:12:00.243Z,13.22
2018-04-11T20:14:36.187Z,13.07
2018-04-11T20:17:09.576Z,12.99
2018-04-11T20:19:41.667Z,12.95
2018-04-11T20:22:18.779Z,12.91
2018-04-11T20:24:49.491Z,12.81
2018-04-11T20:27:19.879Z,12.77
2018-04-11T20:29:50.575Z,12.81
2018-04-11T20:32:21.880Z,12.76
2018-04-11T20:34:53.159Z,12.73
2018-04-11T20:37:26.564Z,12.71
2018-04-11T20:39:57.092Z,12.65
2018-04-11T20:42:27.568Z,12.63
2018-04-11T20:44:59.027Z,12.58
2018-04-11T20:47:29.658Z,12.53
2018-04-11T20:50:01.647Z,12.53
2018-04-11T20:52:32.403Z,12.43
2018-04-11T20:55:04.107Z,12.61
2018-04-11T20:57:35.503Z,12.58
2018-04-11T21:00:06.663Z,12.49
2018-04-11T21:02:42.384Z,12.43
2018-04-11T21:05:19.284Z,12.39
2018-04-11T21:07:51.451Z,12.34
2018-04-11T21:10:24.543Z,12.32
2018-04-11T21:12:55.450Z,12.31
2018-04-11T21:15:25.891Z,12.24
2018-04-11T21:17:56.570Z,12.28
2018-04-11T21:20:27.859Z,12.11
2018-04-11T21:23:00.074Z,12.15
2018-04-11T21:25:31.053Z,12.22
2018-04-11T21:28:01.671Z,12.25
2018-04-11T21:30:32.535Z,12.13
2018-04-11T21:33:11.350Z,12.06
2018-04-11T21:35:42.417Z,12.00
2018-04-11T21:38:14.444Z,11.99
2018-04-11T21:40:45.143Z,12.00
2018-04-11T21:43:16.131Z,12.04
2018-04-11T21:45:47.424Z,12.16
2018-04-11T21:48:18.299Z,11.97
2018-04-11T21:50:48.763Z,11.89
2018-04-11T21:53:22.067Z,12.05
2018-04-11T21:55:53.470Z,12.03
2018-04-11T21:58:24.126Z,12.00
2018-04-11T22:00:55.997Z,11.97
2018-04-11T22:03:28.163Z,11.91
2018-04-11T22:06:01.172Z,11.88
2018-04-11T22:08:35.279Z,11.79
2018-04-11T22:11:05.867Z,11.80
2018-04-11T22:13:39.327Z,11.80
2018-04-11T22:16:11.703Z,11.79
2018-04-11T22:18:43.347Z,11.74
2018-04-11T22:21:15.626Z,11.68
2018-04-11T22:23:54.180Z,11.61
2018-04-11T22:26:24.523Z,11.70
2018-04-11T22:28:57.577Z,11.78
2018-04-11T22:31:28.214Z,11.82
2018-04-11T22:33:58.610Z,11.87
2018-04-11T22:36:29.307Z,11.75
2018-04-11T22:38:59.866Z,11.71
2018-04-11T22:41:30.390Z,11.67
2018-04-11T22:44:01.157Z,11.72
2018-04-11T22:46:32.074Z,11.68
2018-04-11T22:49:03.449Z,11.64
2018-04-11T22:51:39.142Z,11.55
2018-04-11T22:54:11.802Z,11.52
2018-04-11T22:56:42.329Z,11.49
2018-04-11T22:59:13.947Z,11.50
2018-04-11T23:01:50.138Z,11.49
2018-04-11T23:04:25.026Z,11.54
2018-04-11T23:06:55.866Z,11.50
2018-04-11T23:09:26.666Z,11.60
2018-04-11T23:11:57.914Z,11.46
2018-04-11T23:14:28.470Z,11.40
2018-04-11T23:16:59.482Z,11.26
2018-04-11T23:19:32.313Z,11.15
2018-04-11T23:22:03.671Z,11.14
2018-04-11T23:24:35.354Z,11.11
2018-04-11T23:27:08.754Z,11.09
2018-04-11T23:29:41.414Z,11.22
2018-04-11T23:32:12.486Z,11.19
2018-04-11T23:34:46.567Z,11.14
2018-04-11T23:37:19.875Z,11.16
2018-04-11T23:39:53.302Z,11.03
2018-04-11T23:42:23.654Z,11.08
2018-04-11T23:44:53.944Z,11.06
2018-04-11T23:47:24.298Z,11.13
2018-04-11T23:49:55.805Z,11.05
2018-04-11T23:52:27.377Z,11.21
2018-04-11T23:55:00.510Z,11.12
2018-04-11T23:57:31.957Z,11.10
